Time;durP1;ratioP1;P1;durP2;ratioP2;P2;SDS_P1;SDS_P2;PMS_P1;PMS_P2;Temp;Humidity;BMP_temperature;BMP_pressure;BME280_temperature;BME280_humidity;BME280_pressure;Samples;Min_cycle;Max_cycle;Signal;HPM_P1;HPM_P2
2023/12/17 00:01:49;;;;;;;20.83;14.70;;;9.70;99.90;;;;;;5070015;28;20196;-57
2023/12/17 00:04:17;;;;;;;23.40;14.63;;;9.70;99.90;;;;;;5067504;28;20306;-56
2023/12/17 00:06:47;;;;;;;22.73;14.70;;;9.60;99.90;;;;;;5055812;28;20221;-57
2023/12/17 00:09:15;;;;;;;23.67;15.00;;;9.60;99.90;;;;;;5065885;28;20224;-57
2023/12/17 00:11:43;;;;;;;22.27;14.73;;;9.60;99.90;;;;;;5062897;28;20227;-56
2023/12/17 00:14:13;;;;;;;23.17;13.70;;;9.60;99.90;;;;;;5065909;28;20224;-57
2023/12/17 00:16:42;;;;;;;19.50;13.90;;;9.60;99.90;;;;;;5070047;28;20204;-57
2023/12/17 00:19:10;;;;;;;18.77;13.30;;;9.60;99.90;;;;;;5066761;28;20216;-57
2023/12/17 00:21:39;;;;;;;17.87;12.10;;;9.60;99.90;;;;;;5065935;28;20219;-57
2023/12/17 00:24:07;;;;;;;15.30;11.47;;;9.60;99.90;;;;;;5060689;28;20226;-57
2023/12/17 00:26:35;;;;;;;15.50;11.20;;;9.60;99.90;;;;;;5062488;28;20303;-57
2023/12/17 00:29:03;;;;;;;13.77;10.40;;;9.60;99.90;;;;;;5067744;28;20231;-57
2023/12/17 00:31:31;;;;;;;13.93;10.60;;;9.60;99.90;;;;;;5060093;28;20536;-57
2023/12/17 00:34:01;;;;;;;14.70;10.87;;;9.60;99.90;;;;;;5066073;28;20644;-56
2023/12/17 00:36:29;;;;;;;15.20;9.77;;;9.60;99.90;;;;;;5067142;28;20219;-57
2023/12/17 00:38:58;;;;;;;13.40;9.97;;;9.60;99.90;;;;;;5069639;28;20217;-56
2023/12/17 00:41:26;;;;;;;13.97;9.73;;;9.60;99.90;;;;;;5068555;28;20265;-57
2023/12/17 00:43:54;;;;;;;12.87;9.97;;;9.60;99.90;;;;;;5071703;28;21547;-57
2023/12/17 00:46:22;;;;;;;12.30;9.23;;;9.50;99.90;;;;;;5066116;28;20191;-57
2023/12/17 00:48:50;;;;;;;13.87;9.80;;;9.50;99.90;;;;;;5071311;28;20239;-57
2023/12/17 00:51:20;;;;;;;18.73;10.97;;;9.50;99.90;;;;;;5060411;28;20229;-57
2023/12/17 00:53:48;;;;;;;12.93;9.83;;;9.50;99.90;;;;;;5062038;28;20231;-56
2023/12/17 00:56:17;;;;;;;14.73;10.20;;;9.50;99.90;;;;;;5068328;28;20223;-57
2023/12/17 00:58:45;;;;;;;15.57;10.33;;;9.50;99.90;;;;;;5064428;28;20196;-57
2023/12/17 01:01:13;;;;;;;15.73;11.13;;;9.50;99.90;;;;;;5066576;28;20216;-55
2023/12/17 01:03:42;;;;;;;15.20;11.03;;;9.50;99.90;;;;;;5072326;28;20305;-57
2023/12/17 01:06:10;;;;;;;17.07;11.17;;;9.50;99.90;;;;;;5068458;28;20298;-57
2023/12/17 01:08:40;;;;;;;13.23;10.43;;;9.40;99.90;;;;;;5059618;28;20220;-55
2023/12/17 01:11:08;;;;;;;13.23;10.10;;;9.40;99.90;;;;;;5067154;28;20197;-57
2023/12/17 01:13:36;;;;;;;12.60;10.10;;;9.30;99.90;;;;;;5069549;28;20192;-58
2023/12/17 01:16:06;;;;;;;16.73;11.03;;;9.30;99.90;;;;;;5072364;28;20228;-57
2023/12/17 01:18:34;;;;;;;13.43;10.47;;;9.30;99.90;;;;;;5065079;28;20216;-57
2023/12/17 01:21:06;;;;;;;11.17;9.40;;;9.30;99.90;;;;;;5063455;28;20226;-57
2023/12/17 01:23:36;;;;;;;15.43;10.10;;;9.30;99.90;;;;;;5064631;28;20290;-57
2023/12/17 01:26:06;;;;;;;13.60;10.03;;;9.30;99.90;;;;;;5076155;28;20196;-55
2023/12/17 01:28:35;;;;;;;12.57;9.67;;;9.30;99.90;;;;;;5069967;28;20195;-58
2023/12/17 01:31:03;;;;;;;13.53;9.93;;;9.30;99.90;;;;;;5072740;28;20274;-56
2023/12/17 01:33:31;;;;;;;17.97;9.73;;;9.20;99.90;;;;;;5067279;28;20620;-57
2023/12/17 01:36:00;;;;;;;10.83;9.13;;;9.20;99.90;;;;;;5063761;28;20235;-57
2023/12/17 01:38:28;;;;;;;13.77;9.67;;;9.20;99.90;;;;;;5065272;28;20220;-58
2023/12/17 01:40:57;;;;;;;12.60;9.50;;;9.20;99.90;;;;;;5064809;28;20196;-56
2023/12/17 01:43:26;;;;;;;15.63;9.00;;;9.20;99.90;;;;;;5067027;28;20635;-57
2023/12/17 01:45:55;;;;;;;14.43;9.70;;;9.10;99.90;;;;;;5065920;28;20208;-56
2023/12/17 01:48:26;;;;;;;16.00;9.27;;;9.10;99.90;;;;;;5076444;28;20212;-57
2023/12/17 01:50:55;;;;;;;13.80;9.30;;;9.10;99.90;;;;;;5074213;28;20699;-57
2023/12/17 01:53:24;;;;;;;13.83;9.80;;;9.10;99.90;;;;;;5070020;28;20269;-55
2023/12/17 01:55:55;;;;;;;13.20;9.80;;;9.10;99.90;;;;;;5070954;28;20207;-56
2023/12/17 01:58:24;;;;;;;17.23;10.03;;;9.10;99.90;;;;;;5068241;28;20223;-57
2023/12/17 02:00:55;;;;;;;15.50;10.07;;;9.00;99.90;;;;;;5066981;28;20250;-55
2023/12/17 02:03:23;;;;;;;14.60;9.87;;;9.10;99.90;;;;;;5069998;28;20224;-57
2023/12/17 02:05:51;;;;;;;18.43;11.03;;;9.10;99.90;;;;;;5072613;28;20299;-56
2023/12/17 02:08:20;;;;;;;16.53;9.93;;;9.10;99.90;;;;;;5065801;28;20239;-57
2023/12/17 02:10:48;;;;;;;17.30;11.27;;;9.00;99.90;;;;;;5061716;28;20659;-57
2023/12/17 02:13:17;;;;;;;16.03;10.97;;;9.00;99.90;;;;;;5068204;28;20258;-57
2023/12/17 02:15:48;;;;;;;16.50;10.60;;;9.00;99.90;;;;;;5066635;28;20284;-57
2023/12/17 02:18:17;;;;;;;15.07;9.97;;;9.00;99.90;;;;;;5068250;28;20220;-56
2023/12/17 02:20:50;;;;;;;19.63;11.10;;;9.00;99.90;;;;;;5067994;28;20221;-56
2023/12/17 02:23:20;;;;;;;16.93;10.80;;;9.00;99.90;;;;;;5070204;28;20223;-57
2023/12/17 02:25:48;;;;;;;18.83;11.40;;;9.00;99.90;;;;;;5069842;28;20222;-56
2023/12/17 02:28:16;;;;;;;20.50;10.87;;;9.00;99.90;;;;;;5063873;28;20252;-58
2023/12/17 02:30:44;;;;;;;18.07;12.03;;;9.00;99.90;;;;;;5070129;28;20231;-57
2023/12/17 02:33:13;;;;;;;18.90;12.10;;;9.00;99.90;;;;;;5063668;28;20217;-58
2023/12/17 02:35:41;;;;;;;19.73;11.03;;;9.00;99.90;;;;;;5065373;28;20224;-55
2023/12/17 02:38:09;;;;;;;17.97;11.27;;;9.00;99.90;;;;;;5065476;28;20584;-56
2023/12/17 02:40:39;;;;;;;16.30;10.97;;;9.00;99.90;;;;;;5068081;28;20202;-57
2023/12/17 02:43:07;;;;;;;15.90;10.87;;;9.00;99.90;;;;;;5068842;28;20220;-58
2023/12/17 02:45:35;;;;;;;22.57;11.90;;;9.00;99.90;;;;;;5067958;28;20732;-57
2023/12/17 02:48:03;;;;;;;20.53;12.87;;;9.00;99.90;;;;;;5067868;28;20283;-57
2023/12/17 02:50:32;;;;;;;23.87;12.60;;;9.00;99.90;;;;;;5067401;28;20546;-57
2023/12/17 02:53:00;;;;;;;23.60;13.53;;;9.00;99.90;;;;;;5068281;28;20192;-57
2023/12/17 02:55:28;;;;;;;24.03;13.40;;;9.00;99.90;;;;;;5065201;28;20200;-56
2023/12/17 02:57:58;;;;;;;21.97;13.20;;;9.00;99.90;;;;;;5068949;28;20235;-56
2023/12/17 03:00:26;;;;;;;24.93;12.57;;;8.90;99.90;;;;;;5061540;28;20243;-56
2023/12/17 03:02:54;;;;;;;19.17;12.50;;;8.90;99.90;;;;;;5070616;28;20269;-57
2023/12/17 03:05:22;;;;;;;21.47;12.43;;;8.90;99.90;;;;;;5069625;28;20567;-57
2023/12/17 03:07:50;;;;;;;18.63;11.63;;;8.90;99.90;;;;;;5068979;28;20188;-55
2023/12/17 03:10:19;;;;;;;19.30;11.87;;;8.90;99.90;;;;;;5043298;28;20233;-57
2023/12/17 03:12:47;;;;;;;21.40;12.20;;;8.80;99.90;;;;;;5049688;28;20281;-57
2023/12/17 03:15:17;;;;;;;22.83;12.47;;;8.80;99.90;;;;;;5047536;28;20243;-57
2023/12/17 03:17:45;;;;;;;16.83;11.50;;;8.80;99.90;;;;;;5051035;28;20224;-55
2023/12/17 03:20:13;;;;;;;26.13;13.67;;;8.80;99.90;;;;;;5048263;28;20189;-57
2023/12/17 03:22:42;;;;;;;22.53;13.87;;;8.80;99.90;;;;;;5051276;28;20188;-56
2023/12/17 03:25:10;;;;;;;25.77;14.40;;;8.80;99.90;;;;;;5044055;28;20710;-57
2023/12/17 03:27:38;;;;;;;28.13;14.87;;;8.80;99.90;;;;;;5060781;28;20229;-56
2023/12/17 03:30:08;;;;;;;25.47;14.50;;;8.70;99.90;;;;;;5067518;28;20315;-56
2023/12/17 03:32:38;;;;;;;22.87;13.53;;;8.70;99.90;;;;;;5061980;28;20216;-57
2023/12/17 03:35:07;;;;;;;20.43;12.93;;;8.70;99.90;;;;;;5040006;28;20216;-57
2023/12/17 03:37:35;;;;;;;22.53;12.27;;;8.60;99.90;;;;;;5049524;28;20208;-57
2023/12/17 03:40:04;;;;;;;22.97;12.83;;;8.60;99.90;;;;;;5048469;28;20243;-57
2023/12/17 03:42:32;;;;;;;21.23;12.27;;;8.60;99.90;;;;;;5047095;28;20224;-56
2023/12/17 03:45:01;;;;;;;19.83;11.17;;;8.50;99.90;;;;;;5045187;28;20277;-56
2023/12/17 03:47:29;;;;;;;19.67;11.23;;;8.50;99.90;;;;;;5049643;28;20220;-57
2023/12/17 03:49:59;;;;;;;20.30;10.77;;;8.50;99.90;;;;;;5046411;28;20197;-57
2023/12/17 03:52:27;;;;;;;17.33;11.17;;;8.50;99.90;;;;;;5045925;28;20213;-57
2023/12/17 03:54:55;;;;;;;21.97;12.27;;;8.40;99.90;;;;;;5050802;28;20216;-57
2023/12/17 03:57:23;;;;;;;18.93;11.77;;;8.40;99.90;;;;;;5052708;28;20216;-57
2023/12/17 03:59:52;;;;;;;22.77;12.93;;;8.40;99.90;;;;;;5047397;28;20259;-57
2023/12/17 04:02:20;;;;;;;22.20;11.97;;;8.40;99.90;;;;;;5048757;28;20293;-56
2023/12/17 04:04:48;;;;;;;21.47;11.77;;;8.40;99.90;;;;;;5045693;28;20339;-57
2023/12/17 04:07:18;;;;;;;24.23;12.00;;;8.40;99.90;;;;;;5048133;28;20241;-57
2023/12/17 04:09:47;;;;;;;21.40;12.07;;;8.40;99.90;;;;;;5049187;28;20224;-56
2023/12/17 04:12:16;;;;;;;23.93;12.53;;;8.40;99.90;;;;;;5048690;28;20233;-57
2023/12/17 04:14:44;;;;;;;26.03;13.60;;;8.40;99.90;;;;;;5040636;28;20228;-55
2023/12/17 04:17:12;;;;;;;22.83;12.80;;;8.40;99.90;;;;;;5049983;28;20300;-58
2023/12/17 04:19:40;;;;;;;28.17;13.07;;;8.40;99.90;;;;;;5047964;28;20200;-56
2023/12/17 04:22:09;;;;;;;23.87;14.17;;;8.50;99.90;;;;;;5043339;28;20217;-56
2023/12/17 04:24:39;;;;;;;25.70;13.50;;;8.50;99.90;;;;;;5049010;28;20235;-57
2023/12/17 04:27:07;;;;;;;26.17;13.80;;;8.50;99.90;;;;;;5052550;28;20216;-57
2023/12/17 04:29:35;;;;;;;31.90;15.07;;;8.50;99.90;;;;;;5063487;28;20558;-55
2023/12/17 04:32:04;;;;;;;33.50;15.93;;;8.50;99.90;;;;;;5063966;28;20188;-56
2023/12/17 04:34:32;;;;;;;30.53;16.67;;;8.50;99.90;;;;;;5060986;28;20216;-53
2023/12/17 04:37:00;;;;;;;33.63;17.70;;;8.40;99.90;;;;;;5049335;28;20216;-57
2023/12/17 04:39:29;;;;;;;32.13;15.90;;;8.40;99.90;;;;;;5044648;28;20221;-56
2023/12/17 04:41:58;;;;;;;29.13;14.60;;;8.40;99.90;;;;;;5045274;28;20224;-56
2023/12/17 04:44:26;;;;;;;23.73;13.10;;;8.30;99.90;;;;;;5040334;28;20295;-57
2023/12/17 04:46:57;;;;;;;29.13;14.20;;;8.30;99.90;;;;;;5046083;28;20197;-54
2023/12/17 04:49:25;;;;;;;25.33;14.00;;;8.30;99.90;;;;;;5044310;28;20188;-56
2023/12/17 04:51:54;;;;;;;29.63;14.47;;;8.30;99.90;;;;;;5051362;28;20220;-57
2023/12/17 04:54:22;;;;;;;25.57;14.50;;;8.30;99.90;;;;;;5046965;28;20578;-57
2023/12/17 04:56:50;;;;;;;28.83;14.63;;;8.30;99.90;;;;;;5050059;28;20227;-56
2023/12/17 04:59:20;;;;;;;34.40;16.57;;;8.30;99.90;;;;;;5050694;28;20229;-57
2023/12/17 05:01:48;;;;;;;37.63;17.77;;;8.30;99.90;;;;;;5043006;28;20251;-57
2023/12/17 05:04:17;;;;;;;40.70;19.87;;;8.30;99.90;;;;;;5049804;28;20231;-56
2023/12/17 05:06:45;;;;;;;38.63;18.73;;;8.20;99.90;;;;;;5049927;28;20250;-55
2023/12/17 05:09:14;;;;;;;41.33;18.70;;;8.20;99.90;;;;;;5047068;28;20236;-57
2023/12/17 05:11:42;;;;;;;37.60;18.77;;;8.20;99.90;;;;;;5053641;28;20216;-57
2023/12/17 05:14:10;;;;;;;40.53;18.33;;;8.20;99.90;;;;;;5051497;28;20231;-56
2023/12/17 05:16:42;;;;;;;43.30;18.73;;;8.20;99.90;;;;;;5052140;28;20197;-56
2023/12/17 05:19:10;;;;;;;42.40;18.43;;;8.10;99.90;;;;;;5050139;28;20273;-55
2023/12/17 05:21:38;;;;;;;42.00;18.10;;;8.10;99.90;;;;;;5049565;28;20216;-57
2023/12/17 05:24:07;;;;;;;41.03;17.80;;;8.10;99.90;;;;;;5057706;28;21452;-56
2023/12/17 05:26:35;;;;;;;45.97;18.53;;;8.10;99.90;;;;;;5070340;28;20220;-57
2023/12/17 05:29:04;;;;;;;34.93;17.03;;;8.10;99.90;;;;;;5065419;28;20195;-57
2023/12/17 05:31:32;;;;;;;38.03;17.97;;;8.10;99.90;;;;;;5069192;28;20204;-57
2023/12/17 05:34:01;;;;;;;36.80;16.80;;;8.10;99.90;;;;;;5068095;28;20563;-57
2023/12/17 05:36:30;;;;;;;38.90;16.97;;;8.00;99.90;;;;;;5068441;28;20219;-57
2023/12/17 05:38:58;;;;;;;33.10;16.77;;;8.10;99.90;;;;;;5073338;28;20224;-57
2023/12/17 05:41:26;;;;;;;31.20;16.57;;;8.00;99.90;;;;;;5067159;28;20224;-56
2023/12/17 05:43:56;;;;;;;32.27;16.77;;;8.00;99.90;;;;;;5072481;28;20291;-57
2023/12/17 05:46:26;;;;;;;35.13;17.07;;;8.00;99.90;;;;;;5069497;28;20198;-55
2023/12/17 05:48:55;;;;;;;38.63;18.70;;;8.00;99.90;;;;;;5067522;28;20577;-57
2023/12/17 05:51:25;;;;;;;38.43;18.53;;;8.00;99.90;;;;;;5067565;28;20251;-56
2023/12/17 05:53:53;;;;;;;39.20;18.50;;;8.00;99.90;;;;;;5067990;28;20223;-57
2023/12/17 05:56:21;;;;;;;53.67;24.03;;;8.00;99.90;;;;;;5068385;28;20224;-57
2023/12/17 05:58:49;;;;;;;58.17;24.40;;;8.00;99.90;;;;;;5065905;28;20205;-56
2023/12/17 06:01:17;;;;;;;63.27;26.63;;;7.90;99.90;;;;;;5071487;28;20231;-56
2023/12/17 06:03:46;;;;;;;58.00;27.13;;;7.90;99.90;;;;;;5069614;28;20231;-57
2023/12/17 06:06:15;;;;;;;67.63;28.53;;;7.80;99.90;;;;;;5070376;28;20223;-55
2023/12/17 06:08:45;;;;;;;64.43;27.67;;;7.80;99.90;;;;;;5068764;28;20235;-56
2023/12/17 06:11:16;;;;;;;67.53;28.97;;;7.80;99.90;;;;;;5070470;28;20192;-57
2023/12/17 06:13:48;;;;;;;59.07;28.33;;;7.80;99.90;;;;;;5067910;28;20193;-57
2023/12/17 06:16:16;;;;;;;57.43;27.03;;;7.80;99.90;;;;;;5069886;28;20226;-56
2023/12/17 06:18:44;;;;;;;51.40;23.97;;;7.80;99.90;;;;;;5069626;28;20239;-56
2023/12/17 06:21:22;;;;;;;49.50;25.13;;;7.80;99.90;;;;;;5068235;28;20224;-57
2023/12/17 06:23:52;;;;;;;50.13;23.83;;;7.80;99.90;;;;;;5065266;28;20221;-56
2023/12/17 06:26:20;;;;;;;47.40;24.03;;;7.80;99.90;;;;;;5061201;28;20232;-57
2023/12/17 06:28:48;;;;;;;47.13;22.47;;;7.80;99.90;;;;;;5072251;28;20642;-55
2023/12/17 06:31:17;;;;;;;45.13;22.40;;;7.80;99.90;;;;;;5069298;28;20228;-55
2023/12/17 06:33:46;;;;;;;40.40;21.30;;;7.80;99.90;;;;;;5068541;28;20302;-56
2023/12/17 06:36:15;;;;;;;44.60;21.67;;;7.80;99.90;;;;;;5070359;28;20212;-56
2023/12/17 06:38:43;;;;;;;48.87;20.93;;;7.80;99.90;;;;;;5066155;28;20216;-57
2023/12/17 06:41:13;;;;;;;40.97;20.37;;;7.80;99.90;;;;;;5067034;28;20188;-56
2023/12/17 06:43:41;;;;;;;33.73;18.07;;;7.80;99.90;;;;;;5069579;28;20196;-56
2023/12/17 06:46:15;;;;;;;33.87;17.13;;;7.80;99.90;;;;;;5063704;28;20734;-56
2023/12/17 06:48:43;;;;;;;37.77;18.00;;;7.70;99.90;;;;;;5065795;28;20223;-55
2023/12/17 06:51:12;;;;;;;36.80;17.40;;;7.70;99.90;;;;;;5067242;28;20228;-57
2023/12/17 06:53:40;;;;;;;34.33;17.33;;;7.70;99.90;;;;;;5067697;28;20709;-58
2023/12/17 06:56:09;;;;;;;36.60;17.93;;;7.70;99.90;;;;;;5072547;28;20188;-56
2023/12/17 06:58:38;;;;;;;35.20;17.33;;;7.70;99.90;;;;;;5073467;28;20566;-56
2023/12/17 07:01:07;;;;;;;37.13;18.67;;;7.70;99.90;;;;;;5069895;28;20220;-56
2023/12/17 07:03:35;;;;;;;35.37;17.70;;;7.70;99.90;;;;;;5066826;28;20223;-56
2023/12/17 07:06:03;;;;;;;34.57;16.77;;;7.70;99.90;;;;;;5061928;28;20281;-57
2023/12/17 07:08:32;;;;;;;34.97;17.53;;;7.60;99.90;;;;;;5064875;28;20224;-56
2023/12/17 07:11:00;;;;;;;29.73;16.17;;;7.60;99.90;;;;;;5069817;28;20180;-57
2023/12/17 07:13:28;;;;;;;33.87;16.97;;;7.50;99.90;;;;;;5069294;28;20192;-56
2023/12/17 07:15:58;;;;;;;39.13;17.80;;;7.40;99.90;;;;;;5060961;28;20228;-57
2023/12/17 07:18:26;;;;;;;39.57;16.80;;;7.40;99.90;;;;;;5065484;28;20731;-56
2023/12/17 07:20:55;;;;;;;38.83;17.73;;;7.30;99.90;;;;;;5066750;28;20239;-57
2023/12/17 07:23:25;;;;;;;41.43;17.00;;;7.20;99.90;;;;;;5062986;28;20661;-55
2023/12/17 07:25:54;;;;;;;38.57;16.60;;;7.20;99.90;;;;;;5063608;28;20193;-57
2023/12/17 07:28:23;;;;;;;38.37;16.40;;;7.20;99.90;;;;;;5066132;28;20220;-56
2023/12/17 07:30:51;;;;;;;36.10;16.37;;;7.20;99.90;;;;;;5064165;28;20866;-55
2023/12/17 07:33:20;;;;;;;45.53;16.90;;;7.20;99.90;;;;;;5067151;28;20769;-57
2023/12/17 07:35:49;;;;;;;45.47;16.93;;;7.10;99.90;;;;;;5060881;28;20839;-56
2023/12/17 07:38:18;;;;;;;45.30;17.97;;;7.10;99.90;;;;;;5066025;28;20220;-56
2023/12/17 07:40:46;;;;;;;42.83;16.93;;;7.10;99.90;;;;;;5064952;28;20552;-54
2023/12/17 07:43:14;;;;;;;40.80;16.70;;;7.10;99.90;;;;;;5067550;28;20219;-55
2023/12/17 07:45:42;;;;;;;38.40;15.73;;;7.10;99.90;;;;;;5070811;28;20223;-57
2023/12/17 07:48:10;;;;;;;43.30;16.77;;;7.10;99.90;;;;;;5067995;28;20302;-56
2023/12/17 07:50:41;;;;;;;38.93;15.77;;;7.10;99.90;;;;;;5063901;28;20694;-54
2023/12/17 07:53:09;;;;;;;43.73;16.47;;;7.10;99.90;;;;;;5081327;28;20181;-54
2023/12/17 07:55:37;;;;;;;34.90;15.97;;;7.10;99.90;;;;;;5064856;28;20753;-55
2023/12/17 07:58:05;;;;;;;39.40;16.60;;;7.10;99.90;;;;;;5064021;28;20232;-56
2023/12/17 08:00:34;;;;;;;45.83;16.40;;;7.10;99.90;;;;;;5063183;28;20226;-57
2023/12/17 08:03:02;;;;;;;35.43;15.77;;;7.00;99.90;;;;;;5067552;28;20266;-55
2023/12/17 08:05:31;;;;;;;41.47;15.80;;;7.00;99.90;;;;;;5064754;28;20215;-57
2023/12/17 08:08:02;;;;;;;38.20;16.50;;;7.00;99.90;;;;;;5065454;28;20242;-56
2023/12/17 08:10:30;;;;;;;37.27;15.20;;;6.90;99.90;;;;;;5071820;28;20197;-55
2023/12/17 08:12:58;;;;;;;30.97;15.30;;;6.90;99.90;;;;;;5068479;28;20345;-57
2023/12/17 08:15:26;;;;;;;39.53;16.27;;;7.00;99.90;;;;;;5054472;28;20247;-56
2023/12/17 08:17:57;;;;;;;46.90;17.33;;;7.00;99.90;;;;;;5042713;28;20228;-57
2023/12/17 08:20:26;;;;;;;49.73;18.63;;;6.90;99.90;;;;;;5028265;28;20232;-56
2023/12/17 08:22:54;;;;;;;40.23;16.90;;;6.90;99.90;;;;;;5042036;28;20192;-55
2023/12/17 08:25:25;;;;;;;40.03;16.43;;;6.80;99.90;;;;;;5042646;28;20198;-55
2023/12/17 08:27:53;;;;;;;36.77;16.67;;;6.70;99.90;;;;;;5043638;28;20228;-56
2023/12/17 08:30:21;;;;;;;35.77;16.77;;;6.70;99.90;;;;;;5042077;28;20212;-53
2023/12/17 08:32:49;;;;;;;39.37;15.50;;;6.70;99.90;;;;;;5038093;28;20595;-55
2023/12/17 08:35:19;;;;;;;36.10;15.80;;;6.70;99.90;;;;;;5046253;28;20224;-56
2023/12/17 08:37:47;;;;;;;35.13;15.43;;;6.70;99.90;;;;;;5046965;28;20646;-55
2023/12/17 08:40:16;;;;;;;35.23;14.93;;;6.60;99.90;;;;;;5047972;28;20724;-54
2023/12/17 08:42:46;;;;;;;35.43;13.80;;;6.50;99.90;;;;;;5038408;28;20303;-57
2023/12/17 08:45:14;;;;;;;28.27;14.53;;;6.50;99.90;;;;;;5041170;28;20713;-56
2023/12/17 08:47:43;;;;;;;37.30;14.43;;;6.40;99.90;;;;;;5041219;28;20225;-56
2023/12/17 08:50:12;;;;;;;30.37;14.83;;;6.40;99.90;;;;;;5041038;28;20254;-56
2023/12/17 08:52:41;;;;;;;35.63;14.20;;;6.40;99.90;;;;;;5047798;28;20219;-56
2023/12/17 08:55:10;;;;;;;37.07;14.43;;;6.30;99.90;;;;;;5043203;28;20312;-56
2023/12/17 08:57:38;;;;;;;34.87;15.53;;;6.30;99.90;;;;;;5045133;28;20706;-57
2023/12/17 09:00:10;;;;;;;37.77;15.83;;;6.30;99.90;;;;;;5044430;28;20217;-55
2023/12/17 09:02:38;;;;;;;30.73;13.60;;;6.30;99.90;;;;;;5044250;28;20224;-56
2023/12/17 09:05:07;;;;;;;29.80;13.80;;;6.30;99.90;;;;;;5035407;28;20189;-56
2023/12/17 09:07:36;;;;;;;35.27;14.43;;;6.30;99.90;;;;;;5041802;28;20198;-55
2023/12/17 09:10:05;;;;;;;30.90;14.27;;;6.30;99.90;;;;;;5034473;28;20216;-55
2023/12/17 09:12:34;;;;;;;35.40;14.00;;;6.40;99.90;;;;;;5043304;28;20225;-55
2023/12/17 09:15:02;;;;;;;27.53;13.63;;;6.40;99.90;;;;;;5038270;28;20220;-53
2023/12/17 09:17:31;;;;;;;30.57;13.57;;;6.50;99.90;;;;;;5045129;28;20224;-57
2023/12/17 09:20:00;;;;;;;32.60;12.27;;;6.50;99.90;;;;;;5039202;28;20208;-56
2023/12/17 09:22:28;;;;;;;26.07;12.60;;;6.60;99.90;;;;;;5058359;28;20551;-57
2023/12/17 09:24:56;;;;;;;30.43;12.27;;;6.70;99.90;;;;;;5039674;28;20221;-56
2023/12/17 09:27:24;;;;;;;25.40;12.00;;;6.70;99.90;;;;;;5046195;28;20228;-57
2023/12/17 09:29:53;;;;;;;28.43;12.23;;;6.80;99.90;;;;;;5040548;28;20259;-57
2023/12/17 09:32:21;;;;;;;26.70;11.03;;;6.90;99.90;;;;;;5042004;28;20217;-57
2023/12/17 09:34:51;;;;;;;23.47;11.03;;;7.00;99.90;;;;;;5044990;28;20536;-56
2023/12/17 09:37:20;;;;;;;25.47;11.90;;;7.10;99.90;;;;;;5048876;28;20224;-56
2023/12/17 09:39:48;;;;;;;21.63;9.87;;;7.10;99.90;;;;;;5050177;28;20228;-56
2023/12/17 09:42:20;;;;;;;24.70;10.07;;;7.20;99.90;;;;;;5042320;28;20216;-56
2023/12/17 09:44:51;;;;;;;27.37;10.43;;;7.20;99.90;;;;;;5052684;28;20232;-56
2023/12/17 09:47:19;;;;;;;23.37;10.70;;;7.30;99.90;;;;;;5049024;28;20244;-57
2023/12/17 09:49:47;;;;;;;24.13;10.47;;;7.40;99.90;;;;;;5048397;28;20196;-57
2023/12/17 09:52:19;;;;;;;20.00;9.57;;;7.50;99.90;;;;;;5046357;28;20225;-59
2023/12/17 09:54:49;;;;;;;22.33;9.77;;;7.70;99.90;;;;;;5042674;28;20221;-55
2023/12/17 09:57:17;;;;;;;24.30;9.67;;;7.80;99.90;;;;;;5042994;28;20231;-56
2023/12/17 09:59:46;;;;;;;21.53;9.90;;;8.00;99.90;;;;;;5048329;28;20678;-56
2023/12/17 10:02:15;;;;;;;23.30;9.40;;;8.10;99.90;;;;;;5048219;28;20228;-57
2023/12/17 10:04:44;;;;;;;27.63;9.83;;;8.20;99.90;;;;;;5051503;28;20581;-56
2023/12/17 10:07:13;;;;;;;19.23;9.80;;;8.30;99.90;;;;;;5040465;28;20236;-56
2023/12/17 10:09:42;;;;;;;21.77;8.93;;;8.30;98.70;;;;;;5052814;28;20224;-55
2023/12/17 10:12:12;;;;;;;19.83;9.37;;;8.30;96.10;;;;;;5041819;28;20227;-54
2023/12/17 10:14:40;;;;;;;24.80;9.83;;;8.40;96.50;;;;;;5046284;28;20216;-57
2023/12/17 10:17:09;;;;;;;21.97;9.67;;;8.40;97.60;;;;;;5044359;28;20219;-57
2023/12/17 10:19:37;;;;;;;21.07;9.33;;;8.40;95.80;;;;;;5043745;28;20233;-57
2023/12/17 10:22:07;;;;;;;22.60;9.50;;;8.40;99.90;;;;;;5041596;28;20251;-57
2023/12/17 10:24:37;;;;;;;23.37;8.93;;;8.40;99.90;;;;;;5046174;28;20225;-56
2023/12/17 10:27:16;;;;;;;21.37;8.90;;;8.50;94.20;;;;;;5060576;28;20221;-55
2023/12/17 10:29:48;;;;;;;20.50;8.30;;;8.60;98.10;;;;;;5046720;28;20224;-56
2023/12/17 10:32:22;;;;;;;26.17;9.40;;;8.70;93.50;;;;;;5043384;28;20695;-56
2023/12/17 10:34:51;;;;;;;23.00;10.23;;;8.70;85.60;;;;;;5046489;28;20194;-57
2023/12/17 10:37:22;;;;;;;20.30;9.00;;;8.70;93.80;;;;;;5048069;28;20231;-57
2023/12/17 10:39:53;;;;;;;21.43;9.23;;;8.70;71.60;;;;;;5049978;28;20219;-56
2023/12/17 10:42:25;;;;;;;20.77;8.67;;;8.70;82.40;;;;;;5036694;28;20220;-55
2023/12/17 10:44:55;;;;;;;16.27;8.40;;;8.80;88.60;;;;;;5045974;28;20267;-58
2023/12/17 10:47:26;;;;;;;22.27;8.57;;;8.90;82.90;;;;;;5043531;28;20739;-59
2023/12/17 10:49:54;;;;;;;20.03;9.20;;;9.00;85.20;;;;;;5047672;28;20181;-55
2023/12/17 10:52:24;;;;;;;23.10;8.47;;;9.10;84.40;;;;;;5046539;28;20285;-56
2023/12/17 10:54:52;;;;;;;17.93;7.97;;;9.30;74.00;;;;;;5046417;28;20229;-56
2023/12/17 10:57:25;;;;;;;21.27;8.07;;;9.40;54.50;;;;;;5053215;28;20217;-56
2023/12/17 10:59:57;;;;;;;16.03;7.90;;;9.50;53.40;;;;;;5043036;28;20224;-56
2023/12/17 11:02:27;;;;;;;17.23;7.40;;;9.60;45.10;;;;;;5048760;28;20224;-56
2023/12/17 11:04:57;;;;;;;16.90;7.80;;;9.50;16.50;;;;;;5043904;28;20626;-56
2023/12/17 11:07:26;;;;;;;20.00;8.23;;;9.30;26.00;;;;;;5039400;28;20199;-56
2023/12/17 11:10:07;;;;;;;16.47;8.03;;;9.30;43.70;;;;;;5045848;28;20411;-55
2023/12/17 11:12:39;;;;;;;14.37;8.23;;;9.30;44.90;;;;;;5042675;28;20225;-54
2023/12/17 11:15:08;;;;;;;16.27;8.00;;;9.30;48.80;;;;;;5041732;28;20235;-56
2023/12/17 11:17:38;;;;;;;15.93;8.10;;;9.30;32.00;;;;;;5043213;28;20699;-55
2023/12/17 11:20:11;;;;;;;14.27;7.63;;;9.40;49.00;;;;;;5037827;28;20561;-58
2023/12/17 11:23:00;;;;;;;13.37;8.00;;;9.50;36.80;;;;;;5037066;28;20217;-56
2023/12/17 11:25:31;;;;;;;18.40;7.77;;;9.60;43.20;;;;;;5040914;28;20227;-56
2023/12/17 11:28:01;;;;;;;14.10;7.83;;;9.70;24.20;;;;;;5036859;28;20214;-54
2023/12/17 11:30:30;;;;;;;15.53;8.40;;;9.70;22.90;;;;;;5038951;28;20286;-56
2023/12/17 11:32:59;;;;;;;16.07;8.43;;;9.70;21.90;;;;;;5042467;28;20290;-55
2023/12/17 11:35:29;;;;;;;15.30;7.27;;;9.70;18.70;;;;;;5034384;28;20217;-56
2023/12/17 11:37:58;;;;;;;15.43;7.53;;;9.70;26.00;;;;;;5037550;28;20196;-55
2023/12/17 11:40:27;;;;;;;21.30;8.70;;;9.80;30.90;;;;;;5039461;28;20211;-55
2023/12/17 11:42:57;;;;;;;13.53;8.47;;;9.80;8.90;;;;;;5037369;28;20271;-56
2023/12/17 11:45:37;;;;;;;20.17;8.37;;;9.80;14.20;;;;;;5040540;28;20309;-56
2023/12/17 11:48:10;;;;;;;15.07;7.17;;;9.80;22.30;;;;;;5043261;28;20225;-57
2023/12/17 11:50:44;;;;;;;13.50;7.47;;;9.90;21.70;;;;;;5042982;28;20251;-56
2023/12/17 11:53:14;;;;;;;14.80;7.63;;;9.90;11.90;;;;;;5040784;28;20828;-56
2023/12/17 11:55:46;;;;;;;21.03;8.70;;;10.00;1.00;;;;;;5043529;28;20228;-56
2023/12/17 11:58:17;;;;;;;21.10;7.67;;;10.00;1.00;;;;;;5055387;28;20209;-57
2023/12/17 12:03:40;;;;;;;22.30;7.37;;;10.00;1.00;;;;;;5085024;27;20576;-56
2023/12/17 12:06:11;;;;;;;16.20;7.23;;;9.90;1.00;;;;;;5099760;27;20206;-57
2023/12/17 12:08:41;;;;;;;19.43;7.60;;;9.90;3.20;;;;;;5097935;27;20223;-57
2023/12/17 12:11:14;;;;;;;19.27;7.40;;;9.90;1.50;;;;;;5097340;27;20195;-55
2023/12/17 12:13:43;;;;;;;15.87;6.90;;;9.90;1.00;;;;;;5101530;28;20557;-55
2023/12/17 12:16:13;;;;;;;14.63;7.30;;;9.90;6.50;;;;;;5099177;27;20207;-57
2023/12/17 12:18:43;;;;;;;23.07;7.20;;;9.90;5.30;;;;;;5098250;28;20313;-56
2023/12/17 12:21:18;;;;;;;16.50;6.97;;;10.10;3.60;;;;;;5096519;28;20218;-54
2023/12/17 12:23:52;;;;;;;19.67;7.63;;;10.10;1.00;;;;;;5096633;28;20557;-57
2023/12/17 12:26:20;;;;;;;16.23;7.30;;;10.10;1.00;;;;;;5100537;28;20244;-56
2023/12/17 12:28:55;;;;;;;17.90;8.20;;;10.10;1.00;;;;;;5100944;28;20187;-55
2023/12/17 12:31:24;;;;;;;13.93;7.03;;;10.10;1.00;;;;;;5102981;28;20267;-57
2023/12/17 12:33:55;;;;;;;17.80;7.30;;;10.10;1.00;;;;;;5100209;27;20233;-57
2023/12/17 12:36:24;;;;;;;14.57;7.10;;;9.90;1.00;;;;;;5099834;28;20226;-56
2023/12/17 12:39:03;;;;;;;15.97;7.13;;;9.80;1.00;;;;;;5096803;28;20223;-54
2023/12/17 12:41:32;;;;;;;14.73;6.93;;;9.80;1.00;;;;;;5096892;28;20760;-55
2023/12/17 12:44:01;;;;;;;18.07;7.57;;;9.80;4.30;;;;;;5096097;28;20206;-57
2023/12/17 12:46:29;;;;;;;14.90;7.33;;;9.80;1.70;;;;;;5102764;28;20226;-55
2023/12/17 12:48:59;;;;;;;16.87;7.73;;;9.80;10.30;;;;;;5096054;27;20673;-57
2023/12/17 12:51:28;;;;;;;13.93;7.10;;;9.80;1.00;;;;;;5098725;28;20230;-56
2023/12/17 12:53:58;;;;;;;15.83;7.70;;;9.70;6.70;;;;;;5098203;28;20219;-55